createdAt,value
2018-07-17T00:01:55.286Z,17.50
2018-07-17T00:04:23.587Z,17.40
2018-07-17T00:06:53.020Z,17.40
2018-07-17T00:09:21.403Z,17.40
2018-07-17T00:11:49.775Z,17.30
2018-07-17T00:14:19.136Z,17.40
2018-07-17T00:16:47.439Z,17.40
2018-07-17T00:19:16.994Z,17.40
2018-07-17T00:21:45.277Z,17.40
2018-07-17T00:24:13.568Z,17.30
2018-07-17T00:26:41.855Z,17.30
2018-07-17T00:29:10.154Z,17.30
2018-07-17T00:31:38.438Z,17.20
2018-07-17T00:34:06.970Z,17.10
2018-07-17T00:39:04.722Z,17.10
2018-07-17T00:41:33.014Z,17.10
2018-07-17T00:44:01.592Z,17.10
2018-07-17T00:46:29.873Z,17.10
2018-07-17T00:48:58.922Z,17.00
2018-07-17T00:51:27.709Z,17.00
2018-07-17T00:53:56.019Z,17.00
2018-07-17T00:56:24.330Z,16.90
2018-07-17T00:58:52.620Z,16.90
2018-07-17T01:01:26.384Z,16.90
2018-07-17T01:04:00.263Z,16.90
2018-07-17T01:09:07.337Z,16.80
2018-07-17T01:11:41.134Z,16.80
2018-07-17T01:14:14.706Z,16.70
2018-07-17T01:16:43.026Z,16.70
2018-07-17T01:19:11.330Z,16.70
2018-07-17T01:21:39.636Z,16.70
2018-07-17T01:24:07.933Z,16.60
2018-07-17T01:26:36.230Z,16.60
2018-07-17T01:29:04.709Z,16.50
2018-07-17T01:31:34.364Z,16.50
2018-07-17T01:34:02.705Z,16.50
2018-07-17T01:36:30.966Z,16.50
2018-07-17T01:38:59.234Z,16.40
2018-07-17T01:41:27.516Z,16.40
2018-07-17T01:43:55.806Z,16.30
2018-07-17T01:46:24.153Z,16.20
2018-07-17T01:48:52.410Z,16.10
2018-07-17T01:51:20.704Z,16.00
2018-07-17T01:53:48.958Z,16.00
2018-07-17T01:58:45.203Z,15.90
2018-07-17T02:03:41.841Z,15.80
2018-07-17T02:06:10.991Z,15.90
2018-07-17T02:08:39.301Z,15.90
2018-07-17T02:11:08.089Z,15.90
2018-07-17T02:13:36.990Z,15.90
2018-07-17T02:16:06.393Z,15.90
2018-07-17T02:18:35.049Z,15.90
2018-07-17T02:21:04.196Z,15.80
2018-07-17T02:23:32.451Z,15.80
2018-07-17T02:26:00.782Z,15.80
2018-07-17T02:28:29.029Z,15.80
2018-07-17T02:30:57.573Z,15.80
2018-07-17T02:33:25.846Z,15.70
2018-07-17T02:35:54.130Z,15.70
2018-07-17T02:38:22.392Z,15.80
2018-07-17T02:40:50.680Z,15.70
2018-07-17T02:43:18.985Z,15.70
2018-07-17T02:45:47.270Z,15.70
2018-07-17T02:48:15.553Z,15.70
2018-07-17T02:50:43.827Z,15.70
2018-07-17T02:53:12.134Z,15.70
2018-07-17T02:55:40.745Z,15.70
2018-07-17T02:58:09.524Z,15.60
2018-07-17T03:00:37.817Z,15.60
2018-07-17T03:03:06.323Z,15.70
2018-07-17T03:05:34.567Z,15.60
2018-07-17T03:08:02.907Z,15.60
2018-07-17T03:10:31.340Z,15.60
2018-07-17T03:12:59.686Z,15.60
2018-07-17T03:15:27.997Z,15.60
2018-07-17T03:17:56.466Z,15.60
2018-07-17T03:20:24.756Z,15.60
2018-07-17T03:22:53.076Z,15.60
2018-07-17T03:25:21.386Z,15.70
2018-07-17T03:27:49.647Z,15.60
2018-07-17T03:32:45.943Z,15.50
2018-07-17T03:35:15.037Z,15.40
2018-07-17T03:37:43.318Z,15.40
2018-07-17T03:40:13.415Z,15.30
2018-07-17T03:42:42.226Z,15.40
2018-07-17T03:45:10.982Z,15.30
2018-07-17T03:47:39.266Z,15.30
2018-07-17T03:50:08.481Z,15.30
2018-07-17T03:52:37.117Z,15.20
2018-07-17T03:55:05.446Z,15.20
2018-07-17T03:57:33.757Z,15.20
2018-07-17T04:00:02.097Z,15.20
2018-07-17T04:02:30.353Z,15.20
2018-07-17T04:04:58.613Z,15.30
2018-07-17T04:07:26.917Z,15.30
2018-07-17T04:09:56.822Z,15.30
2018-07-17T04:12:25.777Z,15.30
2018-07-17T04:17:22.219Z,15.50
2018-07-17T04:19:50.504Z,15.50
2018-07-17T04:22:18.844Z,15.60
2018-07-17T04:24:47.088Z,15.70
2018-07-17T04:27:15.833Z,15.80
2018-07-17T04:29:44.203Z,15.80
2018-07-17T04:32:12.506Z,15.90
2018-07-17T04:34:40.792Z,16.00
2018-07-17T04:37:09.130Z,16.00
2018-07-17T04:39:39.493Z,16.10
2018-07-17T04:42:07.808Z,16.20
2018-07-17T04:44:36.075Z,16.30
2018-07-17T04:47:04.365Z,16.40
2018-07-17T04:49:32.621Z,16.60
2018-07-17T04:52:01.117Z,16.70
2018-07-17T04:54:29.369Z,16.90
2018-07-17T04:56:57.651Z,17.20
2018-07-17T04:59:25.923Z,17.40
2018-07-17T05:01:54.299Z,17.50
2018-07-17T05:04:22.603Z,17.70
2018-07-17T05:06:51.663Z,17.90
2018-07-17T05:09:20.523Z,18.10
2018-07-17T05:11:48.798Z,18.30
2018-07-17T05:14:17.205Z,18.60
2018-07-17T05:16:45.511Z,18.90
2018-07-17T05:19:13.774Z,19.10
2018-07-17T05:21:42.055Z,19.10
2018-07-17T05:24:11.279Z,19.10
2018-07-17T05:26:40.351Z,19.20
2018-07-17T05:29:08.704Z,19.30
2018-07-17T05:31:36.987Z,19.50
2018-07-17T05:34:07.053Z,19.70
2018-07-17T05:36:35.382Z,19.90
2018-07-17T05:39:05.070Z,20.10
2018-07-17T05:41:34.242Z,20.20
2018-07-17T05:44:02.510Z,20.20
2018-07-17T05:46:30.852Z,20.20
2018-07-17T05:48:59.139Z,20.20
2018-07-17T05:51:27.393Z,20.30
2018-07-17T05:53:55.895Z,20.50
2018-07-17T05:56:24.211Z,20.60
2018-07-17T05:58:53.125Z,20.70
2018-07-17T06:01:21.471Z,21.00
2018-07-17T06:03:49.755Z,21.30
2018-07-17T06:06:18.077Z,21.60
2018-07-17T06:08:46.379Z,21.90
2018-07-17T06:11:14.741Z,22.10
2018-07-17T06:13:43.079Z,22.20
2018-07-17T06:16:12.413Z,22.30
2018-07-17T06:18:40.844Z,22.40
2018-07-17T06:21:09.673Z,22.40
2018-07-17T06:23:37.973Z,22.30
2018-07-17T06:26:06.576Z,22.40
2018-07-17T06:28:34.841Z,22.50
2018-07-17T06:31:03.112Z,22.60
2018-07-17T06:33:31.433Z,22.70
2018-07-17T06:35:59.696Z,22.90
2018-07-17T06:38:28.906Z,23.00
2018-07-17T06:40:57.230Z,23.20
2018-07-17T06:43:25.513Z,23.30
2018-07-17T06:45:54.210Z,23.60
2018-07-17T06:48:23.235Z,23.80
2018-07-17T06:50:52.850Z,24.10
2018-07-17T06:53:21.270Z,24.30
2018-07-17T06:55:49.547Z,24.60
2018-07-17T06:58:17.852Z,24.70
2018-07-17T07:00:46.086Z,24.90
2018-07-17T07:03:15.128Z,25.10
2018-07-17T07:05:44.855Z,25.30
2018-07-17T07:08:13.376Z,25.60
2018-07-17T07:10:41.667Z,25.90
2018-07-17T07:13:09.973Z,26.10
2018-07-17T07:15:38.230Z,26.20
2018-07-17T07:18:06.515Z,26.30
2018-07-17T07:20:35.130Z,26.40
2018-07-17T07:23:03.410Z,26.60
2018-07-17T07:25:32.314Z,26.90
2018-07-17T07:28:00.625Z,27.20
2018-07-17T07:32:56.948Z,27.40
2018-07-17T07:35:26.597Z,27.50
2018-07-17T07:37:55.010Z,27.90
2018-07-17T07:40:23.290Z,28.20
2018-07-17T07:42:52.364Z,28.50
2018-07-17T07:45:20.627Z,28.70
2018-07-17T07:47:48.922Z,29.20
2018-07-17T07:50:18.127Z,29.40
2018-07-17T07:52:46.747Z,29.80
2018-07-17T07:55:15.489Z,29.80
2018-07-17T07:57:44.694Z,30.10
2018-07-17T08:00:12.968Z,30.30
2018-07-17T08:02:41.258Z,30.70
2018-07-17T08:05:16.173Z,31.00
2018-07-17T08:07:44.509Z,31.10
2018-07-17T08:10:13.499Z,31.30
2018-07-17T08:12:42.459Z,31.50
2018-07-17T08:15:10.772Z,32.00
2018-07-17T08:17:39.194Z,32.50
2018-07-17T08:20:07.751Z,33.30
2018-07-17T08:22:36.053Z,33.90
2018-07-17T08:25:04.398Z,34.30
2018-07-17T08:27:33.378Z,35.40
2018-07-17T08:30:01.742Z,37.00
2018-07-17T08:32:30.066Z,37.70
2018-07-17T08:34:58.359Z,38.90
2018-07-17T08:37:26.590Z,39.80
2018-07-17T08:39:54.862Z,40.40
2018-07-17T08:42:23.090Z,39.10
2018-07-17T08:44:51.393Z,38.30
2018-07-17T08:49:53.827Z,39.70
2018-07-17T08:52:22.142Z,40.70
2018-07-17T08:57:18.412Z,42.30
2018-07-17T08:59:46.675Z,42.20
2018-07-17T09:02:14.930Z,42.20
2018-07-17T09:04:43.209Z,42.20
2018-07-17T09:07:11.459Z,42.50
2018-07-17T09:09:39.721Z,42.90
2018-07-17T09:12:08.018Z,43.20
2018-07-17T09:14:36.287Z,43.70
2018-07-17T09:17:04.560Z,43.70
2018-07-17T09:19:32.830Z,44.10
2018-07-17T09:22:01.113Z,42.50
2018-07-17T09:24:29.413Z,42.90
2018-07-17T09:26:57.678Z,42.10
2018-07-17T09:29:25.942Z,42.30
2018-07-17T09:31:54.312Z,42.20
2018-07-17T09:34:22.579Z,42.40
2018-07-17T09:36:51.541Z,42.90
2018-07-17T09:39:19.888Z,42.80
2018-07-17T09:41:48.127Z,42.70
2018-07-17T09:44:16.449Z,42.80
2018-07-17T09:46:44.995Z,43.30
2018-07-17T09:49:13.773Z,43.50
2018-07-17T09:51:42.098Z,43.40
2018-07-17T09:54:10.484Z,43.20
2018-07-17T09:56:38.767Z,42.70
2018-07-17T09:59:07.083Z,42.30
2018-07-17T10:01:40.669Z,41.90
2018-07-17T10:06:36.926Z,41.90
2018-07-17T10:09:06.363Z,42.60
2018-07-17T10:11:35.086Z,42.80
2018-07-17T10:14:03.377Z,42.90
2018-07-17T10:16:31.670Z,41.20
2018-07-17T10:18:59.954Z,39.90
2018-07-17T10:21:28.586Z,39.60
2018-07-17T10:23:56.879Z,39.50
2018-07-17T10:26:25.248Z,39.20
2018-07-17T10:28:53.465Z,39.40
2018-07-17T10:31:21.750Z,39.50
2018-07-17T10:33:50.021Z,39.50
2018-07-17T10:36:18.303Z,40.10
2018-07-17T10:38:47.185Z,40.00
2018-07-17T10:41:15.495Z,38.40
2018-07-17T10:43:43.759Z,37.20
2018-07-17T10:46:12.554Z,37.00
2018-07-17T10:48:41.538Z,37.10
2018-07-17T10:51:09.854Z,36.80
2018-07-17T10:53:38.465Z,36.30
2018-07-17T10:56:06.760Z,35.90
2018-07-17T10:58:35.014Z,36.20
2018-07-17T11:01:03.374Z,35.90
2018-07-17T11:03:31.594Z,35.40
2018-07-17T11:06:01.026Z,34.80
2018-07-17T11:08:29.335Z,34.50
2018-07-17T11:10:57.591Z,34.40
2018-07-17T11:13:25.859Z,34.20
2018-07-17T11:15:54.162Z,34.30
2018-07-17T11:18:22.465Z,34.20
2018-07-17T11:20:50.792Z,33.80
2018-07-17T11:23:19.458Z,33.30
2018-07-17T11:25:47.727Z,33.50
2018-07-17T11:28:16.015Z,33.40
2018-07-17T11:30:44.295Z,33.40
2018-07-17T11:33:12.575Z,33.10
2018-07-17T11:35:40.857Z,33.10
2018-07-17T11:38:10.588Z,33.10
2018-07-17T11:40:39.312Z,33.10
2018-07-17T11:43:07.577Z,33.10
2018-07-17T11:45:36.629Z,33.00
2018-07-17T11:48:05.014Z,33.00
2018-07-17T11:50:33.313Z,33.10
2018-07-17T11:53:01.669Z,33.30
2018-07-17T11:55:30.710Z,33.50
2018-07-17T11:57:59.040Z,33.60
2018-07-17T12:00:27.346Z,33.60
2018-07-17T12:02:56.411Z,33.50
2018-07-17T12:05:25.485Z,33.30
2018-07-17T12:07:53.797Z,33.20
2018-07-17T12:10:22.081Z,33.30
2018-07-17T12:12:50.511Z,33.20
2018-07-17T12:15:18.650Z,33.20
2018-07-17T12:17:49.990Z,33.10
2018-07-17T12:20:18.387Z,32.70
2018-07-17T12:22:47.308Z,32.40
2018-07-17T12:25:16.499Z,32.20
2018-07-17T12:27:44.842Z,32.10
2018-07-17T12:30:13.197Z,31.70
2018-07-17T12:32:41.446Z,31.40
2018-07-17T12:35:11.183Z,31.20
2018-07-17T12:37:39.454Z,31.10
2018-07-17T12:40:08.178Z,31.00
2018-07-17T12:42:36.443Z,31.00
2018-07-17T12:45:04.742Z,30.80
2018-07-17T12:47:33.015Z,30.60
2018-07-17T12:50:01.420Z,30.70
2018-07-17T12:52:29.582Z,30.70
2018-07-17T12:54:57.874Z,30.70
2018-07-17T12:57:26.130Z,30.80
2018-07-17T12:59:54.405Z,30.80
2018-07-17T13:02:22.678Z,30.80
2018-07-17T13:04:53.197Z,30.80
2018-07-17T13:07:23.361Z,30.80
2018-07-17T13:09:51.634Z,30.70
2018-07-17T13:12:19.921Z,30.60
2018-07-17T13:14:48.282Z,30.50
2018-07-17T13:17:16.544Z,30.50
2018-07-17T13:19:44.796Z,30.70
2018-07-17T13:22:13.086Z,30.70
2018-07-17T13:24:41.344Z,30.80
2018-07-17T13:27:09.611Z,30.70
2018-07-17T13:29:38.102Z,30.60
2018-07-17T13:32:06.441Z,30.80
2018-07-17T13:34:34.789Z,30.70
2018-07-17T13:37:03.099Z,30.40
2018-07-17T13:39:32.067Z,30.40
2018-07-17T13:42:00.374Z,30.30
2018-07-17T13:44:28.629Z,30.20
2018-07-17T13:46:56.921Z,30.20
2018-07-17T13:49:25.170Z,30.20
2018-07-17T13:51:54.725Z,30.30
2018-07-17T13:54:23.251Z,30.40
2018-07-17T13:56:51.643Z,30.30
2018-07-17T13:59:20.338Z,30.20
2018-07-17T14:01:48.600Z,30.10
2018-07-17T14:04:16.866Z,30.10
2018-07-17T14:06:45.238Z,30.20
2018-07-17T14:09:13.520Z,30.30
2018-07-17T14:11:42.757Z,30.40
2018-07-17T14:14:12.087Z,30.40
2018-07-17T14:16:40.809Z,30.40
2018-07-17T14:19:09.869Z,30.40
2018-07-17T14:21:38.235Z,30.40
2018-07-17T14:24:07.684Z,30.40
2018-07-17T14:26:35.950Z,30.30
2018-07-17T14:29:04.209Z,30.20
2018-07-17T14:31:32.543Z,30.10
2018-07-17T14:34:00.773Z,30.10
2018-07-17T14:36:29.033Z,30.10
2018-07-17T14:38:58.674Z,30.00
2018-07-17T14:41:28.527Z,30.00
2018-07-17T14:43:56.914Z,29.90
2018-07-17T14:46:25.206Z,29.80
2018-07-17T14:48:53.467Z,29.60
2018-07-17T14:51:22.398Z,29.70
2018-07-17T14:53:51.564Z,29.80
2018-07-17T14:58:48.556Z,29.90
2018-07-17T15:01:16.849Z,29.80
2018-07-17T15:03:45.194Z,29.80
2018-07-17T15:06:13.502Z,29.90
2018-07-17T15:08:41.759Z,30.00
2018-07-17T15:11:10.054Z,30.10
2018-07-17T15:13:38.314Z,30.10
2018-07-17T15:16:06.671Z,30.20
2018-07-17T15:18:35.882Z,30.10
2018-07-17T15:21:04.257Z,30.10
2018-07-17T15:23:32.570Z,30.00
2018-07-17T15:26:00.880Z,30.00
2018-07-17T15:28:29.197Z,30.00
2018-07-17T15:30:57.497Z,29.90
2018-07-17T15:33:27.586Z,29.90
2018-07-17T15:35:55.862Z,29.80
2018-07-17T15:38:24.988Z,29.80
2018-07-17T15:40:53.263Z,29.80
2018-07-17T15:43:21.554Z,29.80
2018-07-17T15:45:49.885Z,29.70
2018-07-17T15:48:18.117Z,29.60
2018-07-17T15:50:46.380Z,29.40
2018-07-17T15:53:15.266Z,29.20
2018-07-17T15:55:43.564Z,29.00
2018-07-17T15:58:11.826Z,28.70
2018-07-17T16:00:40.725Z,28.50
2018-07-17T16:03:09.289Z,28.40
2018-07-17T16:05:37.858Z,28.30
2018-07-17T16:08:06.190Z,28.20
2018-07-17T16:10:34.441Z,28.10
2018-07-17T16:13:03.896Z,28.00
2018-07-17T16:15:33.605Z,27.80
2018-07-17T16:18:02.638Z,27.70
2018-07-17T16:20:31.893Z,27.60
2018-07-17T16:23:00.269Z,27.50
2018-07-17T16:25:28.598Z,27.50
2018-07-17T16:27:56.931Z,27.40
2018-07-17T16:30:25.803Z,27.30
2018-07-17T16:32:54.068Z,27.30
2018-07-17T16:35:22.317Z,27.30
2018-07-17T16:37:50.654Z,27.30
2018-07-17T16:40:18.906Z,27.30
2018-07-17T16:42:47.179Z,27.30
2018-07-17T16:45:15.515Z,27.30
2018-07-17T16:47:43.818Z,27.30
2018-07-17T16:50:12.115Z,27.30
2018-07-17T16:52:40.373Z,27.20
2018-07-17T16:55:09.151Z,27.30
2018-07-17T16:57:37.571Z,27.30
2018-07-17T17:00:06.257Z,27.30
2018-07-17T17:02:36.141Z,27.40
2018-07-17T17:05:04.407Z,27.30
2018-07-17T17:07:32.676Z,27.30
2018-07-17T17:10:00.946Z,27.30
2018-07-17T17:12:30.666Z,27.20
2018-07-17T17:14:59.007Z,27.20
2018-07-17T17:17:27.221Z,27.20
2018-07-17T17:19:55.651Z,27.20
2018-07-17T17:22:23.970Z,27.20
2018-07-17T17:24:52.459Z,27.10
2018-07-17T17:27:20.754Z,27.10
2018-07-17T17:29:49.006Z,27.00
2018-07-17T17:32:17.326Z,26.90
2018-07-17T17:37:13.568Z,26.80
2018-07-17T17:39:41.909Z,26.70
2018-07-17T17:42:10.667Z,26.60
2018-07-17T17:44:39.286Z,26.60
2018-07-17T17:47:07.602Z,26.50
2018-07-17T17:49:35.909Z,26.50
2018-07-17T17:52:04.193Z,26.40
2018-07-17T17:54:32.445Z,26.40
2018-07-17T17:57:00.714Z,26.30
2018-07-17T17:59:29.420Z,26.30
2018-07-17T18:01:57.698Z,26.30
2018-07-17T18:04:25.965Z,26.40
2018-07-17T18:06:56.131Z,26.30
2018-07-17T18:09:24.911Z,26.30
2018-07-17T18:11:53.204Z,26.30
2018-07-17T18:14:21.448Z,26.30
2018-07-17T18:16:49.715Z,26.30
2018-07-17T18:19:18.035Z,26.30
2018-07-17T18:24:14.901Z,26.40
2018-07-17T18:26:43.481Z,26.30
2018-07-17T18:29:12.246Z,26.40
2018-07-17T18:31:40.497Z,26.40
2018-07-17T18:34:08.814Z,26.30
2018-07-17T18:36:38.717Z,26.30
2018-07-17T18:39:08.078Z,26.30
2018-07-17T18:41:36.443Z,26.20
2018-07-17T18:44:04.730Z,26.10
2018-07-17T18:46:32.981Z,26.10
2018-07-17T18:49:03.082Z,26.00
2018-07-17T18:51:31.645Z,26.10
2018-07-17T18:54:00.365Z,26.00
2018-07-17T18:56:28.618Z,25.90
2018-07-17T18:58:56.899Z,25.90
2018-07-17T19:01:25.149Z,25.80
2018-07-17T19:03:53.446Z,25.70
2018-07-17T19:06:21.715Z,25.60
2018-07-17T19:08:50.064Z,25.50
2018-07-17T19:11:18.426Z,25.40
2018-07-17T19:13:47.445Z,25.30
2018-07-17T19:16:16.297Z,25.30
2018-07-17T19:18:44.982Z,25.10
2018-07-17T19:21:13.330Z,25.00
2018-07-17T19:23:41.793Z,24.90
2018-07-17T19:26:10.661Z,24.80
2018-07-17T19:28:38.942Z,24.70
2018-07-17T19:31:07.213Z,24.70
2018-07-17T19:33:35.493Z,24.60
2018-07-17T19:36:03.815Z,24.50
2018-07-17T19:38:32.077Z,24.60
2018-07-17T19:41:00.360Z,24.60
2018-07-17T19:43:28.626Z,24.60
2018-07-17T19:45:59.620Z,24.50
2018-07-17T19:48:28.110Z,24.50
2018-07-17T19:50:56.491Z,24.30
2018-07-17T19:53:25.296Z,24.30
2018-07-17T19:55:53.670Z,24.10
2018-07-17T19:58:21.966Z,24.10
2018-07-17T20:00:51.026Z,24.00
2018-07-17T20:03:19.711Z,23.90
2018-07-17T20:05:48.446Z,23.40
2018-07-17T20:08:16.936Z,22.80
2018-07-17T20:10:46.258Z,22.10
2018-07-17T20:13:14.535Z,21.50
2018-07-17T20:15:42.857Z,21.30
2018-07-17T20:18:11.242Z,21.30
2018-07-17T20:20:39.526Z,21.50
2018-07-17T20:23:07.830Z,21.70
2018-07-17T20:25:36.084Z,21.80
2018-07-17T20:28:05.424Z,22.00
2018-07-17T20:30:33.700Z,22.00
2018-07-17T20:33:01.995Z,22.10
2018-07-17T20:35:30.750Z,22.20
2018-07-17T20:37:59.046Z,22.20
2018-07-17T20:40:27.384Z,22.20
2018-07-17T20:45:23.772Z,22.30
2018-07-17T20:47:52.790Z,22.40
2018-07-17T20:50:21.097Z,22.50
2018-07-17T20:52:49.438Z,22.50
2018-07-17T20:55:17.700Z,22.60
2018-07-17T20:57:46.522Z,22.60
2018-07-17T21:00:14.842Z,22.60
2018-07-17T21:02:43.100Z,22.60
2018-07-17T21:05:11.429Z,22.60
2018-07-17T21:07:39.696Z,22.60
2018-07-17T21:13:42.078Z,22.60
2018-07-17T21:16:10.321Z,22.70
2018-07-17T21:18:38.778Z,22.60
2018-07-17T21:21:07.063Z,22.60
2018-07-17T21:23:35.362Z,22.60
2018-07-17T21:26:03.657Z,22.60
2018-07-17T21:28:32.358Z,22.50
2018-07-17T21:31:00.663Z,22.50
2018-07-17T21:33:28.997Z,22.50
2018-07-17T21:35:57.374Z,22.50
2018-07-17T21:38:25.659Z,22.50
2018-07-17T21:40:53.940Z,22.50
2018-07-17T21:43:22.173Z,22.50
2018-07-17T21:45:50.457Z,22.50
2018-07-17T21:48:18.727Z,22.50
2018-07-17T21:50:47.079Z,22.60
2018-07-17T21:53:15.731Z,22.50
2018-07-17T21:55:43.997Z,22.50
2018-07-17T21:58:12.767Z,22.50
2018-07-17T22:00:41.056Z,22.40
2018-07-17T22:03:09.357Z,22.40
2018-07-17T22:05:37.663Z,22.40
2018-07-17T22:08:05.866Z,22.40
2018-07-17T22:10:34.143Z,22.40
2018-07-17T22:13:02.409Z,22.20
2018-07-17T22:15:30.686Z,22.10
2018-07-17T22:17:59.945Z,21.90
2018-07-17T22:20:29.637Z,21.80
2018-07-17T22:22:58.284Z,21.60
2018-07-17T22:25:26.671Z,21.50
2018-07-17T22:27:54.934Z,21.40
2018-07-17T22:30:23.200Z,21.40
2018-07-17T22:32:51.534Z,21.30
2018-07-17T22:35:20.875Z,21.20
2018-07-17T22:37:49.839Z,21.20
2018-07-17T22:40:18.467Z,21.20
2018-07-17T22:42:46.982Z,21.20
2018-07-17T22:45:16.518Z,21.30
2018-07-17T22:47:44.781Z,21.30
2018-07-17T22:50:14.918Z,21.30
2018-07-17T22:52:43.246Z,21.40
2018-07-17T22:55:11.532Z,21.50
2018-07-17T22:57:40.595Z,21.50
2018-07-17T23:00:09.361Z,21.50
2018-07-17T23:02:38.383Z,21.50
2018-07-17T23:05:06.685Z,21.50
2018-07-17T23:07:35.201Z,21.50
2018-07-17T23:10:03.506Z,21.70
2018-07-17T23:12:33.369Z,21.80
2018-07-17T23:15:01.765Z,21.90
2018-07-17T23:17:30.632Z,21.80
2018-07-17T23:20:00.173Z,21.80
2018-07-17T23:22:41.504Z,21.70
2018-07-17T23:25:11.418Z,21.70
2018-07-17T23:27:40.518Z,21.80
2018-07-17T23:30:08.862Z,21.80
2018-07-17T23:32:37.834Z,21.80
2018-07-17T23:35:06.129Z,21.80
2018-07-17T23:37:34.370Z,21.80
2018-07-17T23:40:02.659Z,21.70
2018-07-17T23:42:30.928Z,21.60
2018-07-17T23:45:03.632Z,21.60
2018-07-17T23:47:32.129Z,21.50
2018-07-17T23:50:00.480Z,21.40
2018-07-17T23:52:28.833Z,21.40
2018-07-17T23:54:57.100Z,21.40
2018-07-17T23:57:25.338Z,21.30
2018-07-17T23:59:53.613Z,21.30
